Time;durP1;ratioP1;P1;durP2;ratioP2;P2;SDS_P1;SDS_P2;PMS_P1;PMS_P2;Temp;Humidity;BMP_temperature;BMP_pressure;BME280_temperature;BME280_humidity;BME280_pressure;Samples;Min_cycle;Max_cycle;Signal;HPM_P1;HPM_P2
2020/12/21 00:03:00;;;;;;;107.60;24.13;;;;;;;;;;8259270;28;20476;-73
2020/12/21 00:07:03;;;;;;;135.07;26.52;;;;;;;;;;8259540;28;20053;-73
2020/12/21 00:11:07;;;;;;;114.80;25.88;;;;;;;;;;8261084;28;20390;-73
2020/12/21 00:15:10;;;;;;;100.60;35.97;;;;;;;;;;8260669;28;20379;-73
2020/12/21 00:19:18;;;;;;;96.70;28.30;;;;;;;;;;8260218;28;20460;-73
2020/12/21 00:23:22;;;;;;;105.20;28.55;;;;;;;;;;8260643;28;20071;-73
2020/12/21 00:27:25;;;;;;;99.75;26.20;;;;;;;;;;8259309;28;20498;-73
2020/12/21 00:31:33;;;;;;;84.60;30.77;;;;;;;;;;8260033;28;20371;-73
2020/12/21 00:35:37;;;;;;;78.90;28.88;;;;;;;;;;8258942;28;20463;-73
2020/12/21 00:39:40;;;;;;;106.95;27.95;;;;;;;;;;8260671;28;20067;-73
2020/12/21 00:43:45;;;;;;;87.53;22.75;;;;;;;;;;8260210;28;20475;-73
2020/12/21 00:47:49;;;;;;;90.90;25.85;;;;;;;;;;8258346;28;20485;-72
2020/12/21 00:51:55;;;;;;;64.22;20.23;;;;;;;;;;8274872;28;20367;-73
2020/12/21 00:56:02;;;;;;;87.05;23.92;;;;;;;;;;8259597;28;20372;-74
2020/12/21 01:00:07;;;;;;;64.13;25.10;;;;;;;;;;8259774;28;20378;-74
2020/12/21 01:04:11;;;;;;;62.70;26.38;;;;;;;;;;8257494;28;20451;-74
2020/12/21 01:08:14;;;;;;;54.35;21.52;;;;;;;;;;8260376;28;20378;-74
2020/12/21 01:12:18;;;;;;;61.92;21.50;;;;;;;;;;8258614;28;20478;-74
2020/12/21 01:16:22;;;;;;;56.20;21.08;;;;;;;;;;8258826;28;20484;-74
2020/12/21 01:20:25;;;;;;;57.67;22.67;;;;;;;;;;8259259;28;20480;-74
2020/12/21 01:24:28;;;;;;;50.03;22.75;;;;;;;;;;8258302;28;20357;-73
2020/12/21 01:28:31;;;;;;;43.60;19.73;;;;;;;;;;8257194;28;20490;-74
2020/12/21 01:32:35;;;;;;;50.35;20.75;;;;;;;;;;8256177;28;20383;-74
2020/12/21 01:36:38;;;;;;;55.53;21.38;;;;;;;;;;8256709;28;20479;-74
2020/12/21 01:40:41;;;;;;;49.75;20.80;;;;;;;;;;8258418;28;20048;-74
2020/12/21 01:44:49;;;;;;;47.53;20.88;;;;;;;;;;8256642;28;20371;-73
2020/12/21 01:48:52;;;;;;;48.00;21.92;;;;;;;;;;8256005;28;20514;-74
2020/12/21 01:52:55;;;;;;;48.35;21.90;;;;;;;;;;8256480;28;20467;-74
2020/12/21 01:56:58;;;;;;;50.58;23.02;;;;;;;;;;8257646;28;20444;-74
2020/12/21 02:01:04;;;;;;;48.33;20.33;;;;;;;;;;8255882;28;20376;-74
2020/12/21 02:05:07;;;;;;;55.67;24.73;;;;;;;;;;8254863;28;20056;-74
2020/12/21 02:09:10;;;;;;;47.17;20.73;;;;;;;;;;8257596;28;20472;-75
2020/12/21 02:13:13;;;;;;;47.38;20.15;;;;;;;;;;8257263;28;20375;-74
2020/12/21 02:17:17;;;;;;;50.55;23.85;;;;;;;;;;8257215;28;20379;-74
2020/12/21 02:21:22;;;;;;;45.67;20.25;;;;;;;;;;8256578;28;20044;-74
2020/12/21 02:25:25;;;;;;;49.95;22.75;;;;;;;;;;8256590;28;20048;-74
2020/12/21 02:29:29;;;;;;;55.47;25.27;;;;;;;;;;8256651;28;20075;-74
2020/12/21 02:33:32;;;;;;;69.32;28.88;;;;;;;;;;8256341;28;20414;-73
2020/12/21 02:37:35;;;;;;;53.80;22.13;;;;;;;;;;8256912;28;20403;-74
2020/12/21 02:41:38;;;;;;;47.00;20.00;;;;;;;;;;8256736;28;20481;-74
2020/12/21 02:45:41;;;;;;;47.97;23.42;;;;;;;;;;8256737;28;20352;-74
2020/12/21 02:49:44;;;;;;;48.50;20.90;;;;;;;;;;8256488;28;20057;-73
2020/12/21 02:53:47;;;;;;;52.15;20.17;;;;;;;;;;8255474;28;20387;-74
2020/12/21 02:57:51;;;;;;;47.28;20.35;;;;;;;;;;8271540;28;20467;-73
2020/12/21 03:01:54;;;;;;;41.10;19.33;;;;;;;;;;8256209;28;20367;-74
2020/12/21 03:05:58;;;;;;;48.53;21.65;;;;;;;;;;8256560;28;20482;-74
2020/12/21 03:10:01;;;;;;;41.42;20.85;;;;;;;;;;8255510;28;20370;-74
2020/12/21 03:14:05;;;;;;;40.25;18.80;;;;;;;;;;8256519;28;20460;-74
2020/12/21 03:18:08;;;;;;;43.90;20.33;;;;;;;;;;8259954;28;20482;-73
2020/12/21 03:22:20;;;;;;;63.60;29.85;;;;;;;;;;8262892;28;20063;-74
2020/12/21 03:26:23;;;;;;;44.58;20.02;;;;;;;;;;8261457;28;20045;-73
2020/12/21 03:30:26;;;;;;;42.88;19.05;;;;;;;;;;8262480;28;20380;-74
2020/12/21 03:34:30;;;;;;;44.47;18.52;;;;;;;;;;8261536;28;20391;-74
2020/12/21 03:38:34;;;;;;;44.50;20.60;;;;;;;;;;8261913;28;20053;-74
2020/12/21 03:42:37;;;;;;;41.80;20.38;;;;;;;;;;8262135;28;20049;-73
2020/12/21 03:46:40;;;;;;;49.25;19.30;;;;;;;;;;8261488;28;20064;-73
2020/12/21 03:50:43;;;;;;;48.65;20.70;;;;;;;;;;8261510;28;20057;-73
2020/12/21 03:54:46;;;;;;;42.00;19.25;;;;;;;;;;8260124;28;20467;-73
2020/12/21 03:58:49;;;;;;;39.88;17.52;;;;;;;;;;8242445;28;20467;-74
2020/12/21 04:02:52;;;;;;;40.42;18.02;;;;;;;;;;8261495;28;20391;-74
2020/12/21 04:06:55;;;;;;;41.25;19.00;;;;;;;;;;8260851;28;20364;-74
2020/12/21 04:11:00;;;;;;;38.60;17.63;;;;;;;;;;8260846;28;20079;-74
2020/12/21 04:15:06;;;;;;;46.58;21.77;;;;;;;;;;8260480;28;20468;-74
2020/12/21 04:19:10;;;;;;;43.70;19.10;;;;;;;;;;8260392;28;20459;-74
2020/12/21 04:23:13;;;;;;;53.92;22.92;;;;;;;;;;8260504;28;20376;-74
2020/12/21 04:27:17;;;;;;;53.00;22.67;;;;;;;;;;8260070;28;20411;-74
2020/12/21 04:31:21;;;;;;;52.80;23.27;;;;;;;;;;8260218;28;20086;-73
2020/12/21 04:35:24;;;;;;;49.17;20.17;;;;;;;;;;8259934;28;20507;-73
2020/12/21 04:39:27;;;;;;;47.40;18.88;;;;;;;;;;8259810;28;20388;-73
2020/12/21 04:43:33;;;;;;;55.78;27.65;;;;;;;;;;8259743;28;20072;-73
2020/12/21 04:47:36;;;;;;;50.33;20.63;;;;;;;;;;8258928;28;20064;-73
2020/12/21 04:51:41;;;;;;;44.05;19.42;;;;;;;;;;8257882;28;20079;-73
2020/12/21 04:55:45;;;;;;;40.78;18.67;;;;;;;;;;8259433;28;20079;-73
2020/12/21 04:59:48;;;;;;;52.50;23.15;;;;;;;;;;8256855;28;20482;-73
2020/12/21 05:03:51;;;;;;;44.53;20.92;;;;;;;;;;8258953;28;20374;-73
2020/12/21 05:07:57;;;;;;;46.50;21.85;;;;;;;;;;8258689;28;20493;-73
2020/12/21 05:12:05;;;;;;;49.42;20.45;;;;;;;;;;8259075;28;20391;-73
2020/12/21 05:16:08;;;;;;;55.33;20.45;;;;;;;;;;8259303;28;20375;-73
2020/12/21 05:20:11;;;;;;;45.85;22.63;;;;;;;;;;8241278;28;20045;-73
2020/12/21 05:24:22;;;;;;;50.63;22.60;;;;;;;;;;8247943;28;20615;-73
2020/12/21 05:28:32;;;;;;;49.80;21.27;;;;;;;;;;8256762;28;20379;-73
2020/12/21 05:32:36;;;;;;;45.38;20.08;;;;;;;;;;8256593;28;20378;-73
2020/12/21 05:36:39;;;;;;;41.35;19.55;;;;;;;;;;8256522;28;20364;-73
2020/12/21 05:40:42;;;;;;;46.20;19.92;;;;;;;;;;8256242;28;20376;-73
2020/12/21 05:45:00;;;;;;;47.58;19.30;;;;;;;;;;8258047;28;20068;-74
2020/12/21 05:49:03;;;;;;;43.73;20.10;;;;;;;;;;8258094;28;20037;-73
2020/12/21 05:53:08;;;;;;;41.95;19.67;;;;;;;;;;8256037;28;20452;-73
2020/12/21 05:57:12;;;;;;;47.33;21.60;;;;;;;;;;8256398;28;20486;-73
2020/12/21 06:01:18;;;;;;;50.95;21.40;;;;;;;;;;8257972;28;20460;-74
2020/12/21 06:05:28;;;;;;;46.78;20.90;;;;;;;;;;8257126;28;20498;-73
2020/12/21 06:09:35;;;;;;;47.17;20.98;;;;;;;;;;8255418;28;20471;-73
2020/12/21 06:13:44;;;;;;;45.72;19.98;;;;;;;;;;8258087;28;20405;-73
2020/12/21 06:17:47;;;;;;;45.88;20.52;;;;;;;;;;8257208;28;20418;-73
2020/12/21 06:21:56;;;;;;;47.10;21.67;;;;;;;;;;8206140;28;20442;-73
2020/12/21 06:26:13;;;;;;;55.58;24.10;;;;;;;;;;8256084;28;20064;-73
2020/12/21 06:30:28;;;;;;;48.23;22.60;;;;;;;;;;8255386;28;20361;-73
2020/12/21 06:34:33;;;;;;;46.35;22.77;;;;;;;;;;8254868;28;20379;-73
2020/12/21 06:38:53;;;;;;;63.55;25.35;;;;;;;;;;8256708;28;20479;-73
2020/12/21 06:43:10;;;;;;;57.00;24.52;;;;;;;;;;8270159;28;20493;-73
2020/12/21 06:47:13;;;;;;;53.05;23.65;;;;;;;;;;8255198;28;20353;-73
2020/12/21 06:51:19;;;;;;;48.00;21.60;;;;;;;;;;8258470;28;20464;-73
2020/12/21 06:55:33;;;;;;;50.83;24.02;;;;;;;;;;8263204;28;20577;-73
2020/12/21 06:59:38;;;;;;;43.55;21.38;;;;;;;;;;8263005;28;20053;-74
2020/12/21 07:03:42;;;;;;;50.53;22.92;;;;;;;;;;8262489;28;20053;-74
2020/12/21 07:07:57;;;;;;;50.55;23.50;;;;;;;;;;8263286;28;20513;-74
2020/12/21 07:12:05;;;;;;;111.63;33.90;;;;;;;;;;8262933;28;20486;-73
2020/12/21 07:16:08;;;;;;;49.20;23.00;;;;;;;;;;8262608;28;20053;-73
2020/12/21 07:20:11;;;;;;;44.53;21.42;;;;;;;;;;8261291;28;20049;-73
2020/12/21 07:24:14;;;;;;;45.88;20.33;;;;;;;;;;8262534;28;20079;-72
2020/12/21 07:28:28;;;;;;;63.55;23.73;;;;;;;;;;8260214;28;20407;-73
2020/12/21 07:32:32;;;;;;;125.75;35.17;;;;;;;;;;8262411;28;20499;-74
2020/12/21 07:36:35;;;;;;;170.07;40.05;;;;;;;;;;8262140;28;20453;-74
2020/12/21 07:40:44;;;;;;;166.98;42.33;;;;;;;;;;8261991;28;20415;-73
2020/12/21 07:44:52;;;;;;;72.80;27.88;;;;;;;;;;8259917;28;20476;-74
2020/12/21 07:48:56;;;;;;;106.60;33.70;;;;;;;;;;8261472;28;20402;-73
2020/12/21 07:52:59;;;;;;;118.60;35.70;;;;;;;;;;8260022;28;20403;-74
2020/12/21 07:57:04;;;;;;;143.93;39.53;;;;;;;;;;8259534;28;20049;-74
2020/12/21 08:01:10;;;;;;;130.75;36.90;;;;;;;;;;8259079;28;20493;-74
2020/12/21 08:05:20;;;;;;;95.13;33.45;;;;;;;;;;8259997;28;20693;-74
2020/12/21 08:09:28;;;;;;;99.13;32.17;;;;;;;;;;8259120;28;20053;-73
2020/12/21 08:13:31;;;;;;;125.10;39.20;;;;;;;;;;8242908;28;20074;-73
2020/12/21 08:17:34;;;;;;;92.43;34.20;;;;;;;;;;8260873;28;20490;-74
2020/12/21 08:21:37;;;;;;;96.60;33.85;;;;;;;;;;8258950;28;20075;-73
2020/12/21 08:25:41;;;;;;;84.85;30.60;;;;;;;;;;8260197;28;20063;-73
2020/12/21 08:29:44;;;;;;;76.53;28.77;;;;;;;;;;8258402;28;20485;-73
2020/12/21 08:34:05;;;;;;;70.97;26.77;;;;;;;;;;8259847;28;20406;-74
2020/12/21 08:38:11;;;;;;;50.60;21.40;;;;;;;;;;8225275;28;20468;-73
2020/12/21 08:42:16;;;;;;;59.30;24.20;;;;;;;;;;8225733;28;20465;-73
2020/12/21 08:46:19;;;;;;;107.20;34.20;;;;;;;;;;8227214;28;20049;-74
2020/12/21 08:50:22;;;;;;;163.70;48.88;;;;;;;;;;8226949;28;20355;-73
2020/12/21 08:54:25;;;;;;;168.27;50.10;;;;;;;;;;8227003;28;20411;-74
2020/12/21 08:58:28;;;;;;;89.75;33.17;;;;;;;;;;8227083;28;20384;-74
2020/12/21 09:02:31;;;;;;;93.38;32.88;;;;;;;;;;8226876;28;20460;-73
2020/12/21 09:06:35;;;;;;;100.95;48.63;;;;;;;;;;8223675;28;20480;-74
2020/12/21 09:10:41;;;;;;;75.53;33.38;;;;;;;;;;8224184;28;20053;-73
2020/12/21 09:14:45;;;;;;;60.95;30.75;;;;;;;;;;8225726;28;20480;-73
2020/12/21 09:18:48;;;;;;;68.90;33.92;;;;;;;;;;8224763;28;20041;-74
2020/12/21 09:22:51;;;;;;;84.63;39.33;;;;;;;;;;8091624;28;20069;-74
2020/12/21 09:26:55;;;;;;;74.15;29.90;;;;;;;;;;8037982;28;20123;-75
2020/12/21 09:30:59;;;;;;;82.80;40.63;;;;;;;;;;8184048;28;20490;-74
2020/12/21 09:35:02;;;;;;;124.75;42.53;;;;;;;;;;8225504;28;20480;-74
2020/12/21 09:39:05;;;;;;;98.15;36.90;;;;;;;;;;8226002;28;20384;-75
2020/12/21 09:43:08;;;;;;;68.75;28.92;;;;;;;;;;8225564;28;20049;-74
2020/12/21 09:47:11;;;;;;;122.40;36.95;;;;;;;;;;8223809;28;20387;-74
2020/12/21 09:51:15;;;;;;;124.47;38.20;;;;;;;;;;8225828;28;20379;-74
2020/12/21 09:55:18;;;;;;;49.13;22.35;;;;;;;;;;8225202;28;20057;-73
2020/12/21 09:59:22;;;;;;;35.88;20.08;;;;;;;;;;8225079;28;20480;-75
2020/12/21 10:03:25;;;;;;;31.95;16.17;;;;;;;;;;8224986;28;20483;-75
2020/12/21 10:07:28;;;;;;;36.13;16.23;;;;;;;;;;8225244;28;20490;-75
2020/12/21 10:11:31;;;;;;;160.57;49.75;;;;;;;;;;8225060;28;20488;-75
2020/12/21 10:15:34;;;;;;;42.58;19.33;;;;;;;;;;8243341;28;20045;-75
2020/12/21 10:19:37;;;;;;;39.97;16.17;;;;;;;;;;8256942;28;20375;-75
2020/12/21 10:23:45;;;;;;;28.10;15.02;;;;;;;;;;8257393;28;20483;-75
2020/12/21 10:27:50;;;;;;;30.73;15.25;;;;;;;;;;8257006;28;20481;-75
2020/12/21 10:31:59;;;;;;;41.78;18.38;;;;;;;;;;8256818;28;20487;-75
2020/12/21 10:36:02;;;;;;;63.88;22.25;;;;;;;;;;8254685;28;20467;-75
2020/12/21 10:40:07;;;;;;;48.42;19.23;;;;;;;;;;8219160;28;20479;-74
2020/12/21 10:44:13;;;;;;;38.97;17.20;;;;;;;;;;8196447;28;20494;-73
2020/12/21 10:48:20;;;;;;;28.30;14.50;;;;;;;;;;8256595;28;20041;-73
2020/12/21 10:52:23;;;;;;;24.52;14.60;;;;;;;;;;8256239;28;20501;-73
2020/12/21 10:56:27;;;;;;;30.40;14.80;;;;;;;;;;8256816;28;20487;-73
2020/12/21 11:00:30;;;;;;;47.60;18.88;;;;;;;;;;8219769;28;20063;-73
2020/12/21 11:04:33;;;;;;;45.38;18.15;;;;;;;;;;8206378;28;20497;-74
2020/12/21 11:08:37;;;;;;;64.82;24.42;;;;;;;;;;8255228;28;20402;-73
2020/12/21 11:12:41;;;;;;;40.47;17.27;;;;;;;;;;8254438;28;20372;-74
2020/12/21 11:16:52;;;;;;;54.53;21.38;;;;;;;;;;8256093;28;20387;-74
2020/12/21 11:20:58;;;;;;;42.08;20.13;;;;;;;;;;8254806;28;20440;-74
2020/12/21 11:25:02;;;;;;;35.55;17.00;;;;;;;;;;8256204;28;20471;-74
2020/12/21 11:29:05;;;;;;;46.58;20.08;;;;;;;;;;8210520;28;20066;-74
2020/12/21 11:33:08;;;;;;;47.00;22.90;;;;;;;;;;8264708;28;20410;-74
2020/12/21 11:37:14;;;;;;;61.63;30.73;;;;;;;;;;8270687;28;20474;-74
2020/12/21 11:41:18;;;;;;;61.10;30.27;;;;;;;;;;8261478;28;20357;-74
2020/12/21 11:45:21;;;;;;;47.45;23.75;;;;;;;;;;8262065;28;20477;-74
2020/12/21 11:49:24;;;;;;;48.33;23.80;;;;;;;;;;8261475;28;20379;-73
2020/12/21 11:53:28;;;;;;;47.88;27.10;;;;;;;;;;8261053;28;20479;-75
2020/12/21 11:57:32;;;;;;;47.10;22.95;;;;;;;;;;8261561;28;20412;-74
2020/12/21 12:01:35;;;;;;;51.00;26.70;;;;;;;;;;8272790;28;20390;-73
2020/12/21 12:05:38;;;;;;;56.95;28.80;;;;;;;;;;8272709;28;20376;-74
2020/12/21 12:09:41;;;;;;;355.27;190.98;;;;;;;;;;8261137;28;20487;-74
2020/12/21 12:13:45;;;;;;;604.67;251.27;;;;;;;;;;8212663;28;20387;-74
2020/12/21 12:17:48;;;;;;;763.63;318.10;;;;;;;;;;8260391;28;20372;-74
2020/12/21 12:21:52;;;;;;;636.00;148.70;;;;;;;;;;8260647;28;20356;-74
2020/12/21 12:25:57;;;;;;;392.98;90.22;;;;;;;;;;8259042;28;20037;-74
2020/12/21 12:30:00;;;;;;;136.07;44.53;;;;;;;;;;8260787;28;20511;-73
2020/12/21 12:34:04;;;;;;;105.72;35.75;;;;;;;;;;8259980;28;20509;-74
2020/12/21 12:38:07;;;;;;;56.95;23.52;;;;;;;;;;8258140;28;20380;-73
2020/12/21 12:42:11;;;;;;;107.07;37.58;;;;;;;;;;8259675;28;20464;-74
2020/12/21 12:46:14;;;;;;;87.47;36.28;;;;;;;;;;8259953;28;20391;-74
2020/12/21 12:50:18;;;;;;;63.60;28.95;;;;;;;;;;8211236;28;20112;-74
2020/12/21 12:54:22;;;;;;;62.92;27.85;;;;;;;;;;8259636;28;20383;-73
2020/12/21 12:58:25;;;;;;;69.15;34.85;;;;;;;;;;8259411;28;20388;-74
2020/12/21 13:02:28;;;;;;;70.20;30.58;;;;;;;;;;8258973;28;20497;-74
2020/12/21 13:06:32;;;;;;;38.90;20.30;;;;;;;;;;8258006;28;20048;-74
2020/12/21 13:10:35;;;;;;;52.90;26.63;;;;;;;;;;8258644;28;20159;-74
2020/12/21 13:14:38;;;;;;;50.67;24.55;;;;;;;;;;8257180;28;20411;-74
2020/12/21 13:18:41;;;;;;;66.63;31.33;;;;;;;;;;8254171;28;20420;-74
2020/12/21 13:22:44;;;;;;;65.18;29.15;;;;;;;;;;8254835;28;20409;-74
2020/12/21 13:26:51;;;;;;;54.53;26.77;;;;;;;;;;8238084;28;20045;-74
2020/12/21 13:30:55;;;;;;;77.75;36.65;;;;;;;;;;8237816;28;20476;-74
2020/12/21 13:34:58;;;;;;;71.55;34.58;;;;;;;;;;8254028;28;20468;-73
2020/12/21 13:39:01;;;;;;;54.53;26.45;;;;;;;;;;8254347;28;20482;-74
2020/12/21 13:43:20;;;;;;;65.30;29.27;;;;;;;;;;8253673;28;20379;-73
2020/12/21 13:47:23;;;;;;;56.30;26.02;;;;;;;;;;8254154;28;20483;-73
2020/12/21 13:51:26;;;;;;;69.10;31.65;;;;;;;;;;8221908;28;20056;-74
2020/12/21 13:55:29;;;;;;;44.70;22.85;;;;;;;;;;8257597;28;20463;-74
2020/12/21 13:59:32;;;;;;;68.55;32.75;;;;;;;;;;8272587;28;20459;-74
2020/12/21 14:03:35;;;;;;;55.65;29.42;;;;;;;;;;8256617;28;20385;-73
2020/12/21 14:07:41;;;;;;;60.30;27.95;;;;;;;;;;8263678;28;20410;-74
2020/12/21 14:11:44;;;;;;;55.25;26.00;;;;;;;;;;8253958;28;20108;-74
2020/12/21 14:15:48;;;;;;;53.92;25.13;;;;;;;;;;8257806;28;20068;-74
2020/12/21 14:19:53;;;;;;;51.75;26.83;;;;;;;;;;8256738;28;20067;-74
2020/12/21 14:23:56;;;;;;;59.72;29.48;;;;;;;;;;8257356;28;20052;-74
2020/12/21 14:28:00;;;;;;;46.85;22.33;;;;;;;;;;8255547;28;20383;-73
2020/12/21 14:32:02;;;;;;;127.32;48.03;;;;;;;;;;8256043;28;20495;-73
2020/12/21 14:36:06;;;;;;;91.28;35.67;;;;;;;;;;8256966;28;20483;-74
2020/12/21 14:40:09;;;;;;;93.30;39.40;;;;;;;;;;8256892;28;20049;-74
2020/12/21 14:44:13;;;;;;;92.20;38.08;;;;;;;;;;8256767;28;20057;-74
2020/12/21 14:48:16;;;;;;;80.90;35.42;;;;;;;;;;8256636;28;20041;-74
2020/12/21 14:52:19;;;;;;;83.93;40.95;;;;;;;;;;8254275;28;20071;-73
2020/12/21 14:56:25;;;;;;;62.95;28.17;;;;;;;;;;8256312;28;20057;-73
2020/12/21 15:00:29;;;;;;;57.42;26.90;;;;;;;;;;8256289;28;20513;-74
2020/12/21 15:04:33;;;;;;;60.92;29.95;;;;;;;;;;8255140;28;20402;-74
2020/12/21 15:08:38;;;;;;;56.17;27.38;;;;;;;;;;8256235;28;20053;-74
2020/12/21 15:12:41;;;;;;;56.05;24.17;;;;;;;;;;8257462;28;20368;-73
2020/12/21 15:16:44;;;;;;;49.90;25.20;;;;;;;;;;8262925;28;20049;-74
2020/12/21 15:20:47;;;;;;;48.30;24.08;;;;;;;;;;8262655;28;20083;-74
2020/12/21 15:24:50;;;;;;;57.22;26.23;;;;;;;;;;8260560;28;20460;-73
2020/12/21 15:28:54;;;;;;;55.88;26.42;;;;;;;;;;8262193;28;20478;-74
2020/12/21 15:32:57;;;;;;;83.43;37.42;;;;;;;;;;8261813;28;20060;-74
2020/12/21 15:36:59;;;;;;;63.92;28.55;;;;;;;;;;8215128;28;20067;-74
2020/12/21 15:41:03;;;;;;;54.90;24.17;;;;;;;;;;8264489;28;20464;-73
2020/12/21 15:45:06;;;;;;;50.53;24.23;;;;;;;;;;8233237;28;20459;-73
2020/12/21 15:49:09;;;;;;;60.33;25.85;;;;;;;;;;8256236;28;20452;-72
2020/12/21 15:53:13;;;;;;;51.65;23.88;;;;;;;;;;8258631;28;20108;-72
2020/12/21 15:57:18;;;;;;;56.95;24.67;;;;;;;;;;8259579;28;20491;-72
2020/12/21 16:01:21;;;;;;;58.58;23.95;;;;;;;;;;8259364;28;20049;-74
2020/12/21 16:05:24;;;;;;;101.47;39.42;;;;;;;;;;8257053;28;20348;-73
2020/12/21 16:09:31;;;;;;;45.80;20.70;;;;;;;;;;8251498;28;20041;-73
2020/12/21 16:13:34;;;;;;;48.45;20.58;;;;;;;;;;8221696;28;20061;-73
2020/12/21 16:17:38;;;;;;;44.47;20.20;;;;;;;;;;8218038;28;20487;-73
2020/12/21 16:21:42;;;;;;;54.58;20.67;;;;;;;;;;8229021;28;20472;-72
2020/12/21 16:25:46;;;;;;;44.25;19.20;;;;;;;;;;8256676;28;20382;-73
2020/12/21 16:29:49;;;;;;;54.58;21.88;;;;;;;;;;8240554;28;20345;-73
2020/12/21 16:33:52;;;;;;;57.53;24.45;;;;;;;;;;8250801;28;20065;-72
2020/12/21 16:37:55;;;;;;;52.38;21.13;;;;;;;;;;8250919;28;20425;-73
2020/12/21 16:42:01;;;;;;;44.92;22.50;;;;;;;;;;8224828;28;20072;-73
2020/12/21 16:46:04;;;;;;;58.45;24.58;;;;;;;;;;8221881;28;20376;-73
2020/12/21 16:50:08;;;;;;;47.97;24.27;;;;;;;;;;8229723;28;20053;-72
2020/12/21 16:54:14;;;;;;;42.67;21.17;;;;;;;;;;8223315;28;20395;-73
2020/12/21 16:58:18;;;;;;;50.45;24.95;;;;;;;;;;8257628;28;20383;-73
2020/12/21 17:02:33;;;;;;;83.40;38.15;;;;;;;;;;8254951;28;20057;-73
2020/12/21 17:06:37;;;;;;;48.22;25.05;;;;;;;;;;8254579;28;20452;-73
2020/12/21 17:10:41;;;;;;;51.00;24.52;;;;;;;;;;8232862;28;20762;-73
2020/12/21 17:14:46;;;;;;;49.42;24.38;;;;;;;;;;8245155;28;20044;-73
2020/12/21 17:18:50;;;;;;;53.38;22.27;;;;;;;;;;8238458;28;20049;-73
2020/12/21 17:22:53;;;;;;;48.28;22.63;;;;;;;;;;8256747;28;20387;-73
2020/12/21 17:26:56;;;;;;;62.08;26.80;;;;;;;;;;8253884;28;20476;-73
2020/12/21 17:31:00;;;;;;;42.58;20.80;;;;;;;;;;8226567;28;20482;-73
2020/12/21 17:35:04;;;;;;;45.85;21.00;;;;;;;;;;8226811;28;20443;-73
2020/12/21 17:39:08;;;;;;;42.50;21.88;;;;;;;;;;8256863;28;20371;-73
2020/12/21 17:43:11;;;;;;;58.40;27.58;;;;;;;;;;8232128;28;20456;-74
2020/12/21 17:47:17;;;;;;;54.95;26.60;;;;;;;;;;8271610;28;20509;-74
2020/12/21 17:51:21;;;;;;;59.60;26.27;;;;;;;;;;8239513;28;20356;-74
2020/12/21 17:55:25;;;;;;;62.78;27.73;;;;;;;;;;8238384;28;20490;-74
2020/12/21 17:59:30;;;;;;;51.22;25.48;;;;;;;;;;8255077;28;20483;-74
2020/12/21 18:03:33;;;;;;;55.17;27.35;;;;;;;;;;8254149;28;20483;-74
2020/12/21 18:07:37;;;;;;;56.80;27.20;;;;;;;;;;8257359;28;20479;-74
2020/12/21 18:11:48;;;;;;;59.10;27.00;;;;;;;;;;8268299;28;20357;-74
2020/12/21 18:16:01;;;;;;;61.10;29.98;;;;;;;;;;8251765;28;20452;-74
2020/12/21 18:20:04;;;;;;;102.35;41.70;;;;;;;;;;8237154;28;20486;-74
2020/12/21 18:24:08;;;;;;;108.10;44.00;;;;;;;;;;8234326;28;20369;-75
2020/12/21 18:28:11;;;;;;;105.82;39.45;;;;;;;;;;8251622;28;20375;-75
2020/12/21 18:32:15;;;;;;;67.97;30.67;;;;;;;;;;8211424;28;20488;-74
2020/12/21 18:36:34;;;;;;;51.80;23.97;;;;;;;;;;8224354;28;20493;-74
2020/12/21 18:40:37;;;;;;;58.80;26.52;;;;;;;;;;8236153;28;20489;-72
2020/12/21 18:44:42;;;;;;;54.63;24.98;;;;;;;;;;8253428;28;20486;-73
2020/12/21 18:48:49;;;;;;;55.43;25.30;;;;;;;;;;8250853;28;20407;-73
2020/12/21 18:52:57;;;;;;;54.97;24.70;;;;;;;;;;8250450;28;20810;-73
2020/12/21 18:57:04;;;;;;;55.45;25.23;;;;;;;;;;8251000;28;20487;-73
2020/12/21 19:01:09;;;;;;;55.90;24.80;;;;;;;;;;8252268;28;20451;-73
2020/12/21 19:05:15;;;;;;;66.82;29.63;;;;;;;;;;8214026;28;20427;-74
2020/12/21 19:09:19;;;;;;;56.08;27.20;;;;;;;;;;8251010;28;20053;-73
2020/12/21 19:13:24;;;;;;;54.97;25.88;;;;;;;;;;8218151;28;20053;-72
2020/12/21 19:17:27;;;;;;;55.20;26.45;;;;;;;;;;8234776;28;20476;-74
2020/12/21 19:21:31;;;;;;;53.80;26.70;;;;;;;;;;8252945;28;20400;-74
2020/12/21 19:25:38;;;;;;;59.08;28.40;;;;;;;;;;8253458;28;20067;-74
2020/12/21 19:29:43;;;;;;;59.45;28.23;;;;;;;;;;8254754;28;20380;-74
2020/12/21 19:33:47;;;;;;;60.63;28.90;;;;;;;;;;8237116;28;20375;-74
2020/12/21 19:37:50;;;;;;;69.43;31.42;;;;;;;;;;8236159;28;20464;-72
2020/12/21 19:41:54;;;;;;;76.57;34.00;;;;;;;;;;8267341;28;20506;-73
2020/12/21 19:45:57;;;;;;;62.90;27.50;;;;;;;;;;8253211;28;20352;-73
2020/12/21 19:50:00;;;;;;;69.03;29.85;;;;;;;;;;8255193;28;20048;-73
2020/12/21 19:54:04;;;;;;;58.15;25.83;;;;;;;;;;8255938;28;20459;-73
2020/12/21 19:58:10;;;;;;;51.13;24.98;;;;;;;;;;8255076;28;20080;-72
2020/12/21 20:02:16;;;;;;;54.10;24.90;;;;;;;;;;8259680;28;20414;-73
2020/12/21 20:06:19;;;;;;;55.90;24.45;;;;;;;;;;8255440;28;20390;-73
2020/12/21 20:10:24;;;;;;;111.45;35.03;;;;;;;;;;8274544;28;20348;-73
2020/12/21 20:14:30;;;;;;;45.95;25.40;;;;;;;;;;8274645;28;20478;-73
2020/12/21 20:18:33;;;;;;;55.20;24.85;;;;;;;;;;8259465;28;20384;-73
2020/12/21 20:22:37;;;;;;;49.50;23.70;;;;;;;;;;8207816;28;20478;-73
2020/12/21 20:26:42;;;;;;;53.47;23.60;;;;;;;;;;8223968;28;20370;-72
2020/12/21 20:30:46;;;;;;;54.60;23.48;;;;;;;;;;8223465;28;20488;-73
2020/12/21 20:34:49;;;;;;;44.85;21.83;;;;;;;;;;8207521;28;20482;-73
2020/12/21 20:38:52;;;;;;;42.75;21.55;;;;;;;;;;8191594;28;20072;-73
2020/12/21 20:42:56;;;;;;;41.47;20.70;;;;;;;;;;8223404;28;20046;-73
2020/12/21 20:47:00;;;;;;;43.72;21.52;;;;;;;;;;8207219;28;20480;-73
2020/12/21 20:51:03;;;;;;;48.42;22.85;;;;;;;;;;8222936;28;20358;-73
2020/12/21 20:55:06;;;;;;;43.38;19.15;;;;;;;;;;8206589;28;20490;-73
2020/12/21 20:59:09;;;;;;;41.72;21.10;;;;;;;;;;8239081;28;20076;-73
2020/12/21 21:03:12;;;;;;;48.25;23.90;;;;;;;;;;8287439;28;20048;-73
2020/12/21 21:07:16;;;;;;;51.50;23.60;;;;;;;;;;8255560;28;20379;-73
2020/12/21 21:11:19;;;;;;;42.15;22.38;;;;;;;;;;8288232;28;20356;-73
2020/12/21 21:15:22;;;;;;;46.85;24.02;;;;;;;;;;8287854;28;20475;-73
2020/12/21 21:19:25;;;;;;;50.28;23.08;;;;;;;;;;8287784;28;20465;-72
2020/12/21 21:23:29;;;;;;;51.05;22.77;;;;;;;;;;8287519;28;20485;-72
2020/12/21 21:27:32;;;;;;;93.10;30.30;;;;;;;;;;8287425;28;20353;-73
2020/12/21 21:31:45;;;;;;;60.42;22.80;;;;;;;;;;8221476;28;20387;-73
2020/12/21 21:35:48;;;;;;;51.28;22.92;;;;;;;;;;8221353;28;20081;-73
2020/12/21 21:39:51;;;;;;;171.80;39.95;;;;;;;;;;8222037;28;20468;-73
2020/12/21 21:43:55;;;;;;;158.95;40.33;;;;;;;;;;8205807;28;20476;-75
2020/12/21 21:48:10;;;;;;;79.95;30.33;;;;;;;;;;8205044;28;20428;-73
2020/12/21 21:52:15;;;;;;;440.10;100.22;;;;;;;;;;8221110;28;20456;-73
2020/12/21 21:56:20;;;;;;;72.82;29.63;;;;;;;;;;8204974;28;20365;-73
2020/12/21 22:00:26;;;;;;;179.43;45.63;;;;;;;;;;8224997;28;20471;-73
2020/12/21 22:04:30;;;;;;;159.23;44.08;;;;;;;;;;8257826;28;20490;-72
2020/12/21 22:08:33;;;;;;;214.27;54.38;;;;;;;;;;8256223;28;20475;-73
2020/12/21 22:12:44;;;;;;;445.50;99.63;;;;;;;;;;8255421;28;20478;-74
2020/12/21 22:16:47;;;;;;;311.92;71.28;;;;;;;;;;8257555;28;20073;-73
2020/12/21 22:20:51;;;;;;;213.90;56.22;;;;;;;;;;8255704;28;20375;-73
2020/12/21 22:24:54;;;;;;;343.70;76.15;;;;;;;;;;8256665;28;20373;-74
2020/12/21 22:28:57;;;;;;;414.85;88.72;;;;;;;;;;8258777;28;20371;-72
2020/12/21 22:33:00;;;;;;;111.55;37.35;;;;;;;;;;8255240;28;20353;-73
2020/12/21 22:37:03;;;;;;;91.22;32.08;;;;;;;;;;8256353;28;20395;-73
2020/12/21 22:41:08;;;;;;;68.65;28.17;;;;;;;;;;8257392;28;20357;-73
2020/12/21 22:45:11;;;;;;;63.55;26.98;;;;;;;;;;8257125;28;20456;-73
2020/12/21 22:49:14;;;;;;;62.35;25.77;;;;;;;;;;8256323;28;20387;-74
2020/12/21 22:53:17;;;;;;;47.30;22.60;;;;;;;;;;8255856;28;20379;-74
2020/12/21 22:57:20;;;;;;;56.95;23.35;;;;;;;;;;8256445;28;20387;-74
2020/12/21 23:01:23;;;;;;;49.40;23.27;;;;;;;;;;8255720;28;20464;-73
2020/12/21 23:05:28;;;;;;;55.25;23.88;;;;;;;;;;8256392;28;20463;-73
2020/12/21 23:09:31;;;;;;;58.08;24.58;;;;;;;;;;8238705;28;20375;-73
2020/12/21 23:13:35;;;;;;;63.42;24.55;;;;;;;;;;8238712;28;20391;-73
2020/12/21 23:17:38;;;;;;;73.10;27.48;;;;;;;;;;8256678;28;20395;-73
2020/12/21 23:21:42;;;;;;;87.88;29.65;;;;;;;;;;8255766;28;20386;-73
2020/12/21 23:25:45;;;;;;;60.30;24.10;;;;;;;;;;8256551;28;20463;-73
2020/12/21 23:29:48;;;;;;;57.80;26.58;;;;;;;;;;8251864;28;20379;-72
2020/12/21 23:33:51;;;;;;;71.55;27.27;;;;;;;;;;8252683;28;20360;-74
2020/12/21 23:37:56;;;;;;;110.15;34.90;;;;;;;;;;8242274;28;20359;-74
2020/12/21 23:41:59;;;;;;;78.40;29.30;;;;;;;;;;8258324;28;20478;-73